createdAt,value
2023-04-29T00:01:36.128Z,71.33
2023-04-29T00:04:03.020Z,71.60
2023-04-29T00:06:30.521Z,69.57
2023-04-29T00:08:57.019Z,67.03
2023-04-29T00:11:23.436Z,71.23
2023-04-29T00:13:49.866Z,68.60
2023-04-29T00:16:16.294Z,69.97
2023-04-29T00:18:42.727Z,69.07
2023-04-29T00:21:09.155Z,66.63
2023-04-29T00:23:35.548Z,74.67
2023-04-29T00:26:01.961Z,72.23
2023-04-29T00:28:28.412Z,66.63
2023-04-29T00:30:55.994Z,67.40
2023-04-29T00:33:22.596Z,68.67
2023-04-29T00:35:49.129Z,69.90
2023-04-29T00:38:15.522Z,58.27
2023-04-29T00:40:43.637Z,60.83
2023-04-29T00:43:10.198Z,58.40
2023-04-29T00:45:36.600Z,55.47
2023-04-29T00:48:03.098Z,53.97
2023-04-29T00:50:30.343Z,56.43
2023-04-29T00:52:56.987Z,54.40
2023-04-29T00:55:24.069Z,50.97
2023-04-29T00:57:52.723Z,53.13
2023-04-29T01:00:19.428Z,47.50
2023-04-29T01:02:46.736Z,45.43
2023-04-29T01:05:13.348Z,50.27
2023-04-29T01:07:49.056Z,43.80
2023-04-29T01:10:16.869Z,45.63
2023-04-29T01:13:01.870Z,42.40
2023-04-29T01:15:32.015Z,41.80
2023-04-29T01:18:30.264Z,38.60
2023-04-29T01:20:58.109Z,43.47
2023-04-29T01:23:28.448Z,42.77
2023-04-29T01:25:55.657Z,42.33
2023-04-29T01:28:46.730Z,40.67
2023-04-29T01:31:31.388Z,42.20
2023-04-29T01:34:19.857Z,40.33
2023-04-29T01:37:18.647Z,41.93
2023-04-29T01:39:56.808Z,39.27
2023-04-29T01:42:29.016Z,36.83
2023-04-29T01:44:56.545Z,38.07
2023-04-29T01:47:23.457Z,36.90
2023-04-29T01:49:50.088Z,34.50
2023-04-29T01:52:16.605Z,35.97
2023-04-29T01:54:43.345Z,39.57
2023-04-29T01:57:09.783Z,33.30
2023-04-29T01:59:36.418Z,35.20
2023-04-29T02:02:02.787Z,33.70
2023-04-29T02:04:29.226Z,35.73
2023-04-29T02:06:55.654Z,32.23
2023-04-29T02:09:22.067Z,33.03
2023-04-29T02:11:48.473Z,34.73
2023-04-29T02:14:14.871Z,36.57
2023-04-29T02:16:44.419Z,34.07
2023-04-29T02:19:11.826Z,33.10
2023-04-29T02:21:40.007Z,32.13
2023-04-29T02:24:07.065Z,32.47
2023-04-29T02:26:34.377Z,34.17
2023-04-29T02:29:00.828Z,34.07
2023-04-29T02:31:28.976Z,30.67
2023-04-29T02:33:55.609Z,32.80
2023-04-29T02:36:22.022Z,38.17
2023-04-29T02:38:50.711Z,32.50
2023-04-29T02:41:18.181Z,29.77
2023-04-29T02:43:44.842Z,32.63
2023-04-29T02:46:11.473Z,34.37
2023-04-29T02:48:37.931Z,34.00
2023-04-29T02:51:04.329Z,30.83
2023-04-29T02:53:30.767Z,30.17
2023-04-29T02:55:57.395Z,30.03
2023-04-29T02:58:23.862Z,30.13
2023-04-29T03:00:50.747Z,27.03
2023-04-29T03:03:17.411Z,30.83
2023-04-29T03:05:44.410Z,30.50
2023-04-29T03:08:11.225Z,31.97
2023-04-29T03:10:39.261Z,27.83
2023-04-29T03:13:07.613Z,26.17
2023-04-29T03:15:34.021Z,32.63
2023-04-29T03:18:01.964Z,27.27
2023-04-29T03:20:29.647Z,29.70
2023-04-29T03:22:56.190Z,28.77
2023-04-29T03:25:22.929Z,28.43
2023-04-29T03:27:49.327Z,29.60
2023-04-29T03:30:15.699Z,29.53
2023-04-29T03:32:42.271Z,29.47
2023-04-29T03:35:08.937Z,25.40
2023-04-29T03:37:35.474Z,29.50
2023-04-29T03:40:01.837Z,31.83
2023-04-29T03:42:28.329Z,25.60
2023-04-29T03:44:54.898Z,28.03
2023-04-29T03:47:21.300Z,33.50
2023-04-29T03:49:47.677Z,26.40
2023-04-29T03:52:14.100Z,29.83
2023-04-29T03:54:41.009Z,30.10
2023-04-29T03:57:07.428Z,27.33
2023-04-29T03:59:33.982Z,29.07
2023-04-29T04:02:00.475Z,27.93
2023-04-29T04:04:27.100Z,25.90
2023-04-29T04:06:53.610Z,29.07
2023-04-29T04:09:20.001Z,28.67
2023-04-29T04:11:46.625Z,30.40
2023-04-29T04:14:13.027Z,29.23
2023-04-29T04:16:39.552Z,28.23
2023-04-29T04:19:06.017Z,28.87
2023-04-29T04:21:32.403Z,29.73
2023-04-29T04:23:58.760Z,29.67
2023-04-29T04:26:25.326Z,30.60
2023-04-29T04:28:51.823Z,30.53
2023-04-29T04:31:18.291Z,29.30
2023-04-29T04:33:44.701Z,30.53
2023-04-29T04:36:11.311Z,31.43
2023-04-29T04:38:37.683Z,34.10
2023-04-29T04:41:07.091Z,31.53
2023-04-29T04:43:33.673Z,34.73
2023-04-29T04:46:00.191Z,31.83
2023-04-29T04:48:26.637Z,32.77
2023-04-29T04:50:53.036Z,30.80
2023-04-29T04:53:19.415Z,29.73
2023-04-29T04:55:46.836Z,31.00
2023-04-29T04:58:13.238Z,32.47
2023-04-29T05:00:44.354Z,29.47
2023-04-29T05:03:10.961Z,33.90
2023-04-29T05:05:37.826Z,36.33
2023-04-29T05:08:04.434Z,31.17
2023-04-29T05:10:30.851Z,33.30
2023-04-29T05:12:57.297Z,33.03
2023-04-29T05:15:23.847Z,30.00
2023-04-29T05:17:50.344Z,34.90
2023-04-29T05:20:16.833Z,34.67
2023-04-29T05:22:43.343Z,31.83
2023-04-29T05:25:10.089Z,30.57
2023-04-29T05:27:36.473Z,30.87
2023-04-29T05:30:02.965Z,32.50
2023-04-29T05:32:29.486Z,35.37
2023-04-29T05:34:56.644Z,31.87
2023-04-29T05:37:23.025Z,32.33
2023-04-29T05:39:49.380Z,34.93
2023-04-29T05:42:15.862Z,31.80
2023-04-29T05:44:42.297Z,30.43
2023-04-29T05:47:08.998Z,29.80
2023-04-29T05:49:35.658Z,36.87
2023-04-29T05:52:06.297Z,34.67
2023-04-29T05:54:33.655Z,31.73
2023-04-29T05:57:02.338Z,33.27
2023-04-29T05:59:32.452Z,35.07
2023-04-29T06:01:59.699Z,34.80
2023-04-29T06:04:27.059Z,33.00
2023-04-29T06:06:54.302Z,34.40
2023-04-29T06:09:27.586Z,33.40
2023-04-29T06:11:54.544Z,29.93
2023-04-29T06:14:21.001Z,29.73
2023-04-29T06:16:49.026Z,28.57
2023-04-29T06:19:15.536Z,31.33
2023-04-29T06:21:41.976Z,26.77
2023-04-29T06:24:09.137Z,30.87
2023-04-29T06:26:35.523Z,28.60
2023-04-29T06:29:01.969Z,31.63
2023-04-29T06:31:28.722Z,26.70
2023-04-29T06:33:55.251Z,33.33
2023-04-29T06:36:21.687Z,29.80
2023-04-29T06:38:48.060Z,28.50
2023-04-29T06:41:14.474Z,30.37
2023-04-29T06:43:43.104Z,28.87
2023-04-29T06:46:09.952Z,32.50
2023-04-29T06:48:36.809Z,31.90
2023-04-29T06:51:03.226Z,27.93
2023-04-29T06:53:29.691Z,27.60
2023-04-29T06:55:56.218Z,26.27
2023-04-29T06:58:22.629Z,27.53
2023-04-29T07:00:50.608Z,29.87
2023-04-29T07:03:18.179Z,28.87
2023-04-29T07:05:47.787Z,26.33
2023-04-29T07:08:14.403Z,24.57
2023-04-29T07:10:41.683Z,28.90
2023-04-29T07:13:08.165Z,32.30
2023-04-29T07:15:35.605Z,26.80
2023-04-29T07:18:04.354Z,24.47
2023-04-29T07:20:31.088Z,22.33
2023-04-29T07:22:57.512Z,27.40
2023-04-29T07:25:23.951Z,27.37
2023-04-29T07:27:50.409Z,30.87
2023-04-29T07:30:16.794Z,31.17
2023-04-29T07:32:43.273Z,26.43
2023-04-29T07:35:09.787Z,24.77
2023-04-29T07:37:36.192Z,24.00
2023-04-29T07:40:02.572Z,26.13
2023-04-29T07:42:28.993Z,20.63
2023-04-29T07:44:55.852Z,24.30
2023-04-29T07:47:22.286Z,20.70
2023-04-29T07:49:48.756Z,18.03
2023-04-29T07:52:15.146Z,24.50
2023-04-29T07:54:41.542Z,20.87
2023-04-29T07:57:07.969Z,19.17
2023-04-29T07:59:34.355Z,18.67
2023-04-29T08:02:00.994Z,16.13
2023-04-29T08:04:27.573Z,18.03
2023-04-29T08:06:54.241Z,18.90
2023-04-29T08:09:21.221Z,18.13
2023-04-29T08:11:47.679Z,24.27
2023-04-29T08:14:14.187Z,18.17
2023-04-29T08:16:40.824Z,21.53
2023-04-29T08:19:07.512Z,17.13
2023-04-29T08:21:34.816Z,18.27
2023-04-29T08:24:01.354Z,13.73
2023-04-29T08:26:28.134Z,15.50
2023-04-29T08:28:54.620Z,18.47
2023-04-29T08:31:21.829Z,19.40
2023-04-29T08:33:48.772Z,16.20
2023-04-29T08:36:15.486Z,17.67
2023-04-29T08:38:41.930Z,14.07
2023-04-29T08:41:11.968Z,17.63
2023-04-29T08:43:40.800Z,17.13
2023-04-29T08:46:07.831Z,15.37
2023-04-29T08:48:36.128Z,14.73
2023-04-29T08:51:02.736Z,14.83
2023-04-29T08:53:29.373Z,15.10
2023-04-29T08:56:05.301Z,14.87
2023-04-29T08:58:34.446Z,12.73
2023-04-29T09:01:01.082Z,16.67
2023-04-29T09:03:32.262Z,14.13
2023-04-29T09:06:00.789Z,11.27
2023-04-29T09:08:27.693Z,16.20
2023-04-29T09:10:54.659Z,12.93
2023-04-29T09:13:25.401Z,14.10
2023-04-29T09:15:52.011Z,14.40
2023-04-29T09:18:44.154Z,16.47
2023-04-29T09:21:15.574Z,14.20
2023-04-29T09:23:42.348Z,15.43
2023-04-29T09:26:08.780Z,15.33
2023-04-29T09:28:35.234Z,13.80
2023-04-29T09:31:06.241Z,16.20
2023-04-29T09:33:33.112Z,14.13
2023-04-29T09:36:00.889Z,14.07
2023-04-29T09:38:27.284Z,16.03
2023-04-29T09:40:59.463Z,17.53
2023-04-29T09:43:27.291Z,16.00
2023-04-29T09:45:53.895Z,15.10
2023-04-29T09:48:20.423Z,14.80
2023-04-29T09:51:01.550Z,14.83
2023-04-29T09:53:29.756Z,18.43
2023-04-29T09:56:01.503Z,13.03
2023-04-29T09:58:38.223Z,15.53
2023-04-29T10:01:05.382Z,17.97
2023-04-29T10:03:34.777Z,16.00
2023-04-29T10:06:02.626Z,13.53
2023-04-29T10:08:29.721Z,16.60
2023-04-29T10:10:59.944Z,15.23
2023-04-29T10:13:28.295Z,13.20
2023-04-29T10:16:01.963Z,16.63
2023-04-29T10:18:37.582Z,12.30
2023-04-29T10:21:08.139Z,11.93
2023-04-29T10:23:34.904Z,16.07
2023-04-29T10:26:03.842Z,12.40
2023-04-29T10:28:33.677Z,13.80
2023-04-29T10:31:05.101Z,15.17
2023-04-29T10:33:33.839Z,12.67
2023-04-29T10:36:01.144Z,11.27
2023-04-29T10:38:36.137Z,12.70
2023-04-29T10:41:10.935Z,14.90
2023-04-29T10:43:37.413Z,11.03
2023-04-29T10:46:16.276Z,10.97
2023-04-29T10:48:46.988Z,10.37
2023-04-29T10:51:14.405Z,13.03
2023-04-29T10:54:01.302Z,12.17
2023-04-29T10:56:41.201Z,12.17
2023-04-29T10:59:13.028Z,10.47
2023-04-29T11:01:52.919Z,11.57
2023-04-29T11:04:23.001Z,13.17
2023-04-29T11:06:55.099Z,11.47
2023-04-29T11:09:24.467Z,11.47
2023-04-29T11:12:06.593Z,11.80
2023-04-29T11:14:43.185Z,9.07
2023-04-29T11:17:10.037Z,9.73
2023-04-29T11:19:47.481Z,10.83
2023-04-29T11:22:21.517Z,10.87
2023-04-29T11:25:02.064Z,10.13
2023-04-29T11:27:36.356Z,10.33
2023-04-29T11:30:05.281Z,10.23
2023-04-29T11:32:33.446Z,9.57
2023-04-29T11:35:13.253Z,12.83
2023-04-29T11:37:41.080Z,13.93
2023-04-29T11:40:08.676Z,8.60
2023-04-29T11:42:39.157Z,9.07
2023-04-29T11:45:06.913Z,7.63
2023-04-29T11:47:33.408Z,8.17
2023-04-29T11:50:04.821Z,10.53
2023-04-29T11:52:31.275Z,9.50
2023-04-29T11:54:59.636Z,5.93
2023-04-29T11:57:26.751Z,11.77
2023-04-29T11:59:53.640Z,8.43
2023-04-29T12:02:23.781Z,6.80
2023-04-29T12:04:51.105Z,9.90
2023-04-29T12:07:18.110Z,8.27
2023-04-29T12:09:45.042Z,8.10
2023-04-29T12:12:12.152Z,7.83
2023-04-29T12:14:38.747Z,8.03
2023-04-29T12:17:05.824Z,9.93
2023-04-29T12:19:32.432Z,7.30
2023-04-29T12:21:59.541Z,8.50
2023-04-29T12:24:25.966Z,10.30
2023-04-29T12:26:54.030Z,7.80
2023-04-29T12:29:23.431Z,6.70
2023-04-29T12:31:51.370Z,7.17
2023-04-29T12:34:18.093Z,11.27
2023-04-29T12:36:44.663Z,7.63
2023-04-29T12:39:11.388Z,7.20
2023-04-29T12:41:42.112Z,8.87
2023-04-29T12:44:10.842Z,7.67
2023-04-29T12:46:39.138Z,11.43
2023-04-29T12:49:06.081Z,9.43
2023-04-29T12:51:33.165Z,8.87
2023-04-29T12:54:04.227Z,6.50
2023-04-29T12:56:31.751Z,9.60
2023-04-29T12:59:06.378Z,8.33
2023-04-29T13:01:33.218Z,12.50
2023-04-29T13:03:59.847Z,7.77
2023-04-29T13:06:27.409Z,10.30
2023-04-29T13:08:54.542Z,11.60
2023-04-29T15:52:20.948Z,3.50
2023-04-29T15:54:47.361Z,4.10
2023-04-29T15:57:14.100Z,5.07
2023-04-29T15:59:40.555Z,3.63
2023-04-29T16:02:10.700Z,5.40
2023-04-29T16:04:40.250Z,5.17
2023-04-29T16:07:06.817Z,6.27
2023-04-29T16:09:33.722Z,5.93
2023-04-29T16:12:00.561Z,3.20
2023-04-29T16:14:26.956Z,4.40
2023-04-29T16:16:53.641Z,5.63
2023-04-29T16:19:20.118Z,6.03
2023-04-29T16:21:46.563Z,2.97
2023-04-29T16:24:13.401Z,4.20
2023-04-29T16:26:43.228Z,9.97
2023-04-29T16:29:10.102Z,4.00
2023-04-29T16:31:36.505Z,3.93
2023-04-29T16:34:03.310Z,3.70
2023-04-29T16:36:30.126Z,2.63
2023-04-29T16:38:57.818Z,4.57
2023-04-29T16:41:26.035Z,2.20
2023-04-29T16:43:53.833Z,4.80
2023-04-29T16:46:20.326Z,3.73
2023-04-29T16:48:47.072Z,3.53
2023-04-29T16:51:13.463Z,5.10
2023-04-29T16:53:39.870Z,5.47
2023-04-29T16:56:06.568Z,3.63
2023-04-29T16:58:32.964Z,3.00
2023-04-29T17:00:59.366Z,4.27
2023-04-29T17:03:25.879Z,5.10
2023-04-29T17:05:52.610Z,4.00
2023-04-29T17:08:19.096Z,4.33
2023-04-29T17:10:45.511Z,2.97
2023-04-29T17:13:11.977Z,5.57
2023-04-29T17:15:38.388Z,6.73
2023-04-29T17:18:04.877Z,6.47
2023-04-29T17:20:31.573Z,4.40
2023-04-29T17:22:58.025Z,3.67
2023-04-29T17:25:24.433Z,6.93
2023-04-29T17:27:51.001Z,6.20
2023-04-29T17:30:17.425Z,7.83
2023-04-29T17:32:44.444Z,10.27
2023-04-29T17:35:11.565Z,8.87
2023-04-29T17:37:38.259Z,5.03
2023-04-29T17:40:05.235Z,4.53
2023-04-29T17:42:31.673Z,10.23
2023-04-29T17:44:58.113Z,8.63
2023-04-29T17:47:24.600Z,7.73
2023-04-29T17:49:51.882Z,8.90
2023-04-29T17:52:21.282Z,10.23
2023-04-29T17:54:48.671Z,6.23
2023-04-29T17:57:15.094Z,6.67
2023-04-29T17:59:41.540Z,9.27
2023-04-29T18:02:07.897Z,9.03
2023-04-29T18:04:34.469Z,6.90
2023-04-29T18:07:01.738Z,9.23
2023-04-29T18:09:28.145Z,13.00
2023-04-29T18:11:54.625Z,9.27
2023-04-29T18:14:21.449Z,8.20
2023-04-29T18:16:47.908Z,10.67
2023-04-29T18:19:14.550Z,10.60
2023-04-29T18:21:41.027Z,7.17
2023-04-29T18:24:07.845Z,8.30
2023-04-29T18:26:34.242Z,11.23
2023-04-29T18:29:00.778Z,13.93
2023-04-29T18:31:27.245Z,9.33
2023-04-29T18:33:53.962Z,10.33
2023-04-29T18:36:23.668Z,9.03
2023-04-29T18:38:50.662Z,7.33
2023-04-29T18:41:17.358Z,12.63
2023-04-29T18:43:43.802Z,12.63
2023-04-29T18:46:10.250Z,11.87
2023-04-29T18:48:38.243Z,10.73
2023-04-29T18:51:05.933Z,8.57
2023-04-29T18:53:32.533Z,9.87
2023-04-29T18:55:59.042Z,11.53
2023-04-29T18:58:28.316Z,6.30
2023-04-29T19:00:55.209Z,16.13
2023-04-29T19:03:21.682Z,11.87
2023-04-29T19:05:48.208Z,8.00
2023-04-29T19:08:17.506Z,8.57
2023-04-29T19:10:44.663Z,12.57
2023-04-29T19:13:11.547Z,13.37
2023-04-29T19:15:38.732Z,7.43
2023-04-29T19:18:05.312Z,14.67
2023-04-29T19:20:32.816Z,14.67
2023-04-29T19:22:59.193Z,10.17
2023-04-29T19:25:28.530Z,14.83
2023-04-29T19:27:54.964Z,9.03
2023-04-29T19:30:21.643Z,12.77
2023-04-29T19:32:48.603Z,8.87
2023-04-29T19:35:15.109Z,10.13
2023-04-29T19:37:41.506Z,11.20
2023-04-29T19:40:10.515Z,11.83
2023-04-29T19:42:37.803Z,11.60
2023-04-29T19:45:07.535Z,8.33
2023-04-29T19:47:34.801Z,13.23
2023-04-29T19:50:02.052Z,10.70
2023-04-29T19:52:29.677Z,11.53
2023-04-29T19:54:56.386Z,15.77
2023-04-29T19:57:22.776Z,12.13
2023-04-29T19:59:49.222Z,11.40
2023-04-29T20:02:15.739Z,13.83
2023-04-29T20:04:42.469Z,8.80
2023-04-29T20:07:08.970Z,8.07
2023-04-29T20:09:35.386Z,13.40
2023-04-29T20:12:04.057Z,9.00
2023-04-29T20:14:30.714Z,7.30
2023-04-29T20:16:59.637Z,3.83
2023-04-29T20:19:26.895Z,12.80
2023-04-29T20:21:53.697Z,11.20
2023-04-29T20:24:20.138Z,11.37
2023-04-29T20:26:46.597Z,12.20
2023-04-29T20:29:12.976Z,6.57
2023-04-29T20:31:39.446Z,8.37
2023-04-29T20:34:05.899Z,9.67
2023-04-29T20:36:32.857Z,9.93
2023-04-29T20:38:59.259Z,11.13
2023-04-29T20:41:29.285Z,7.20
2023-04-29T20:43:56.255Z,11.47
2023-04-29T20:46:24.649Z,12.47
2023-04-29T20:48:52.402Z,9.93
2023-04-29T20:51:18.818Z,11.07
2023-04-29T20:53:45.611Z,10.30
2023-04-29T20:56:12.050Z,5.90
2023-04-29T20:58:38.459Z,8.67
2023-04-29T21:01:04.972Z,7.57
2023-04-29T21:03:31.371Z,10.23
2023-04-29T21:05:58.007Z,12.07
2023-04-29T21:08:24.371Z,8.03
2023-04-29T21:10:51.101Z,13.27
2023-04-29T21:13:17.831Z,10.27
2023-04-29T21:15:47.279Z,8.90
2023-04-29T21:18:13.894Z,8.83
2023-04-29T21:20:40.586Z,10.67
2023-04-29T21:23:07.033Z,16.03
2023-04-29T21:25:33.514Z,9.20
2023-04-29T21:27:59.895Z,5.43
2023-04-29T21:30:32.883Z,8.90
2023-04-29T21:32:59.334Z,4.67
2023-04-29T21:35:26.774Z,8.97
2023-04-29T21:37:53.166Z,7.77
2023-04-29T21:40:19.738Z,11.63
2023-04-29T21:42:46.345Z,10.40
2023-04-29T21:45:17.641Z,9.50
2023-04-29T21:47:44.181Z,8.30
2023-04-29T21:50:11.562Z,7.70
2023-04-29T21:52:38.017Z,10.43
2023-04-29T21:55:05.107Z,10.47
2023-04-29T21:57:42.802Z,9.63
2023-04-29T22:00:20.797Z,9.13
2023-04-29T22:02:47.233Z,9.00
2023-04-29T22:05:13.835Z,13.10
2023-04-29T22:07:40.500Z,16.77
2023-04-29T22:10:07.397Z,14.27
2023-04-29T22:12:33.782Z,10.60
2023-04-29T22:15:00.302Z,9.77
2023-04-29T22:17:26.727Z,6.80
2023-04-29T22:19:53.471Z,14.30
2023-04-29T22:22:20.064Z,7.13
2023-04-29T22:24:46.461Z,12.33
2023-04-29T22:27:12.837Z,9.63
2023-04-29T22:29:39.389Z,7.03
2023-04-29T22:32:05.966Z,10.60
2023-04-29T22:34:32.371Z,10.37
2023-04-29T22:36:58.761Z,8.07
2023-04-29T22:39:25.216Z,12.07
2023-04-29T22:41:51.601Z,6.67
2023-04-29T22:44:18.017Z,11.60
2023-04-29T22:46:44.549Z,8.47
2023-04-29T22:49:10.992Z,9.90
2023-04-29T22:51:37.493Z,6.97
2023-04-29T22:54:03.945Z,7.70
2023-04-29T22:56:30.499Z,7.70
2023-04-29T22:58:56.991Z,13.60
2023-04-29T23:01:23.542Z,7.23
2023-04-29T23:03:49.963Z,9.13
2023-04-29T23:06:16.444Z,10.80
2023-04-29T23:08:44.476Z,13.10
2023-04-29T23:11:11.497Z,12.43
2023-04-29T23:13:38.157Z,8.00
2023-04-29T23:16:04.942Z,12.97
2023-04-29T23:18:31.437Z,10.13
2023-04-29T23:20:57.827Z,6.50
2023-04-29T23:23:24.655Z,5.90
2023-04-29T23:25:51.038Z,10.10
2023-04-29T23:28:17.442Z,10.17
2023-04-29T23:30:46.360Z,7.37
2023-04-29T23:33:13.153Z,11.90
2023-04-29T23:35:39.590Z,10.17
2023-04-29T23:38:05.990Z,13.50
2023-04-29T23:40:32.541Z,9.97
2023-04-29T23:42:58.932Z,11.77
2023-04-29T23:45:25.302Z,10.80
2023-04-29T23:47:51.776Z,14.63
2023-04-29T23:50:18.302Z,13.93
2023-04-29T23:52:44.697Z,15.87
2023-04-29T23:55:11.098Z,13.37
2023-04-29T23:57:37.548Z,9.20
